Time;durP1;ratioP1;P1;durP2;ratioP2;P2;SDS_P1;SDS_P2;PMS_P1;PMS_P2;Temp;Humidity;BMP_temperature;BMP_pressure;BME280_temperature;BME280_humidity;BME280_pressure;Samples;Min_cycle;Max_cycle;Signal;HPM_P1;HPM_P2
2023/12/18 00:00:55;;;;;;;4.13;2.80;;;5.40;99.90;;;;;;7390517;19;20682;-73
2023/12/18 00:03:21;;;;;;;2.63;2.37;;;5.40;99.90;;;;;;7390171;19;20159;-73
2023/12/18 00:05:46;;;;;;;3.83;2.53;;;5.40;99.90;;;;;;7389260;19;20516;-73
2023/12/18 00:08:12;;;;;;;3.40;1.80;;;5.30;99.90;;;;;;7388439;19;20171;-74
2023/12/18 00:10:38;;;;;;;3.30;2.23;;;5.20;99.90;;;;;;7390805;19;20149;-74
2023/12/18 00:13:03;;;;;;;1.90;1.70;;;5.20;99.90;;;;;;7388514;19;20146;-74
2023/12/18 00:15:29;;;;;;;4.13;2.83;;;5.40;99.90;;;;;;7391139;19;20142;-73
2023/12/18 00:17:55;;;;;;;2.43;1.83;;;5.50;99.90;;;;;;7388667;19;20262;-72
2023/12/18 00:20:21;;;;;;;2.07;1.87;;;5.50;99.90;;;;;;7390320;19;20130;-72
2023/12/18 00:22:47;;;;;;;3.00;2.40;;;5.50;99.90;;;;;;7388853;19;20139;-72
2023/12/18 00:25:12;;;;;;;2.80;2.60;;;5.50;99.90;;;;;;7389645;19;20486;-73
2023/12/18 00:27:38;;;;;;;2.33;2.13;;;5.50;99.90;;;;;;7391250;19;20301;-73
2023/12/18 00:30:05;;;;;;;2.30;2.07;;;5.30;99.90;;;;;;7397509;19;20148;-73
2023/12/18 00:32:31;;;;;;;2.40;2.20;;;5.40;99.90;;;;;;7397234;19;20135;-73
2023/12/18 00:34:57;;;;;;;3.00;2.20;;;5.50;99.90;;;;;;7398000;19;20602;-72
2023/12/18 00:37:23;;;;;;;2.40;1.73;;;5.50;99.90;;;;;;7396710;19;20468;-73
2023/12/18 00:39:48;;;;;;;2.43;2.13;;;5.50;99.90;;;;;;7396035;19;20138;-73
2023/12/18 00:42:14;;;;;;;2.20;1.80;;;5.50;99.90;;;;;;7395839;19;20154;-73
2023/12/18 00:44:40;;;;;;;1.87;1.47;;;5.50;99.90;;;;;;7396877;19;20180;-73
2023/12/18 00:47:06;;;;;;;1.40;1.30;;;5.50;99.90;;;;;;7396710;19;20170;-73
2023/12/18 00:49:32;;;;;;;1.47;1.37;;;5.40;99.90;;;;;;7395248;19;20218;-73
2023/12/18 00:51:57;;;;;;;2.77;2.20;;;5.50;99.90;;;;;;7396718;19;20146;-72
2023/12/18 00:54:23;;;;;;;2.67;1.87;;;5.30;99.90;;;;;;7395385;19;20214;-72
2023/12/18 00:56:49;;;;;;;1.83;1.73;;;5.40;99.90;;;;;;7396590;19;20579;-73
2023/12/18 00:59:15;;;;;;;2.53;1.80;;;5.10;99.90;;;;;;7395117;19;20142;-73
2023/12/18 01:01:42;;;;;;;2.77;2.50;;;5.20;99.90;;;;;;7397132;19;20138;-74
2023/12/18 01:04:07;;;;;;;3.20;2.27;;;5.30;99.90;;;;;;7396297;19;20145;-72
2023/12/18 01:06:33;;;;;;;2.57;1.83;;;5.20;99.90;;;;;;7396035;19;20619;-72
2023/12/18 01:08:59;;;;;;;2.17;1.67;;;5.30;99.90;;;;;;7395228;19;20587;-73
2023/12/18 01:11:24;;;;;;;2.03;1.77;;;5.20;99.90;;;;;;7396283;19;20479;-72
2023/12/18 01:13:50;;;;;;;2.67;2.30;;;5.20;99.90;;;;;;7392207;19;20189;-73
2023/12/18 01:16:16;;;;;;;3.33;2.07;;;5.40;99.90;;;;;;7395198;19;20222;-72
2023/12/18 01:18:42;;;;;;;2.40;2.20;;;5.30;99.90;;;;;;7395075;19;20128;-72
2023/12/18 01:21:08;;;;;;;4.17;2.30;;;5.30;99.90;;;;;;7398605;19;20131;-73
2023/12/18 01:23:33;;;;;;;2.67;2.07;;;5.30;99.90;;;;;;7396747;19;20137;-73
2023/12/18 01:25:59;;;;;;;5.10;3.53;;;5.30;99.90;;;;;;7397635;19;20155;-74
2023/12/18 01:28:25;;;;;;;2.40;2.20;;;5.20;99.90;;;;;;7394969;19;20709;-72
2023/12/18 01:30:51;;;;;;;2.80;2.00;;;5.10;99.90;;;;;;7394838;19;20149;-73
2023/12/18 01:33:16;;;;;;;2.20;1.90;;;4.90;99.90;;;;;;7392468;19;20134;-73
2023/12/18 01:35:42;;;;;;;1.70;1.60;;;5.00;99.90;;;;;;7394900;19;20150;-73
2023/12/18 01:38:09;;;;;;;2.53;2.00;;;5.10;99.90;;;;;;7394494;19;20131;-73
2023/12/18 01:40:35;;;;;;;2.07;1.90;;;5.20;99.90;;;;;;7392835;19;20139;-73
2023/12/18 01:43:01;;;;;;;2.80;2.20;;;5.20;99.90;;;;;;7394686;19;20173;-73
2023/12/18 01:45:26;;;;;;;2.07;1.93;;;5.20;99.90;;;;;;7391451;19;20248;-73
2023/12/18 01:47:54;;;;;;;2.40;2.03;;;5.20;99.90;;;;;;7392824;19;20170;-73
2023/12/18 01:50:20;;;;;;;2.37;2.07;;;5.20;99.90;;;;;;7393206;19;20169;-72
2023/12/18 01:52:45;;;;;;;3.70;2.73;;;5.10;99.90;;;;;;7393955;19;20550;-73
2023/12/18 01:55:13;;;;;;;3.53;2.33;;;5.10;99.90;;;;;;7394634;19;20150;-73
2023/12/18 01:57:40;;;;;;;3.17;2.17;;;5.00;99.90;;;;;;7394380;19;20222;-72
2023/12/18 02:00:06;;;;;;;3.30;2.63;;;5.10;99.90;;;;;;7396465;19;20156;-73
2023/12/18 02:02:33;;;;;;;2.40;2.17;;;4.90;99.90;;;;;;7395125;19;20131;-74
2023/12/18 02:04:59;;;;;;;3.87;2.77;;;5.00;99.90;;;;;;7393672;19;20206;-72
2023/12/18 02:07:26;;;;;;;2.73;2.50;;;5.00;99.90;;;;;;7393219;19;20146;-73
2023/12/18 02:09:52;;;;;;;3.67;2.50;;;4.70;99.90;;;;;;7396302;19;20139;-71
2023/12/18 02:12:17;;;;;;;3.97;2.50;;;4.90;99.90;;;;;;7394310;19;20134;-74
2023/12/18 02:14:43;;;;;;;3.53;2.40;;;4.90;99.90;;;;;;7393493;19;20131;-72
2023/12/18 02:17:09;;;;;;;1.80;1.40;;;5.00;99.90;;;;;;7390877;19;20510;-73
2023/12/18 02:19:35;;;;;;;2.73;2.50;;;5.00;99.90;;;;;;7392821;19;20619;-74
2023/12/18 02:22:00;;;;;;;2.83;2.47;;;4.60;99.90;;;;;;7394034;19;20157;-73
2023/12/18 02:24:26;;;;;;;3.30;2.23;;;4.40;99.90;;;;;;7392530;19;20140;-73
2023/12/18 02:26:52;;;;;;;4.40;1.93;;;4.80;99.90;;;;;;7393659;19;20508;-74
2023/12/18 02:29:18;;;;;;;2.77;2.00;;;4.60;99.90;;;;;;7393112;19;20139;-73
2023/12/18 02:31:44;;;;;;;2.37;1.87;;;4.60;99.90;;;;;;7394167;19;20131;-72
2023/12/18 02:34:09;;;;;;;2.97;2.27;;;4.80;99.90;;;;;;7392021;19;20141;-72
2023/12/18 02:36:35;;;;;;;2.37;2.10;;;4.90;99.90;;;;;;7392298;19;20150;-72
2023/12/18 02:39:01;;;;;;;2.37;2.17;;;4.90;99.90;;;;;;7392974;19;20141;-73
2023/12/18 02:41:26;;;;;;;1.80;1.47;;;5.10;99.90;;;;;;7392543;19;20135;-74
2023/12/18 02:43:52;;;;;;;2.53;2.17;;;5.00;99.90;;;;;;7393830;19;20456;-74
2023/12/18 02:46:18;;;;;;;2.37;2.17;;;4.90;99.90;;;;;;7391455;19;20853;-74
2023/12/18 02:48:44;;;;;;;2.17;1.57;;;4.90;99.90;;;;;;7393128;19;20154;-74
2023/12/18 02:51:10;;;;;;;2.60;2.40;;;4.70;99.90;;;;;;7391742;19;20472;-74
2023/12/18 02:53:35;;;;;;;3.77;1.97;;;4.80;99.90;;;;;;7390971;19;20159;-74
2023/12/18 02:56:01;;;;;;;2.03;1.83;;;4.90;99.90;;;;;;7393300;19;20150;-73
2023/12/18 02:58:30;;;;;;;2.17;1.97;;;5.00;99.90;;;;;;7388941;19;20615;-73
2023/12/18 03:00:56;;;;;;;2.30;2.03;;;5.00;99.90;;;;;;7392230;19;20138;-73
2023/12/18 03:03:21;;;;;;;3.57;2.47;;;5.00;99.90;;;;;;7388455;19;20572;-74
2023/12/18 03:05:47;;;;;;;2.63;1.53;;;5.00;99.90;;;;;;7390387;19;20155;-74
2023/12/18 03:08:13;;;;;;;1.70;1.60;;;5.00;99.90;;;;;;7390955;19;20130;-74
2023/12/18 03:10:39;;;;;;;4.47;2.20;;;5.10;99.90;;;;;;7391246;19;20127;-74
2023/12/18 03:13:04;;;;;;;2.03;1.83;;;4.90;99.90;;;;;;7390959;19;20655;-72
2023/12/18 03:15:33;;;;;;;3.37;2.53;;;4.80;99.90;;;;;;7393833;19;20141;-74
2023/12/18 03:17:59;;;;;;;2.13;1.90;;;4.90;99.90;;;;;;7391366;19;20151;-73
2023/12/18 03:20:24;;;;;;;3.27;2.47;;;4.90;99.90;;;;;;7392036;19;20254;-74
2023/12/18 03:22:50;;;;;;;1.87;1.73;;;4.90;99.90;;;;;;7391049;19;20596;-73
2023/12/18 03:25:16;;;;;;;2.33;2.07;;;4.90;99.90;;;;;;7392305;19;20158;-73
2023/12/18 03:27:42;;;;;;;2.03;1.83;;;4.90;99.90;;;;;;7390793;19;20138;-74
2023/12/18 03:30:08;;;;;;;2.20;2.00;;;5.00;99.90;;;;;;7390745;19;20131;-74
2023/12/18 03:32:33;;;;;;;3.47;2.23;;;4.70;99.90;;;;;;7389100;19;20755;-74
2023/12/18 03:34:59;;;;;;;3.13;2.20;;;4.70;99.90;;;;;;7392031;19;20123;-73
2023/12/18 03:37:25;;;;;;;2.50;2.30;;;4.90;99.90;;;;;;7391275;19;20128;-73
2023/12/18 03:39:51;;;;;;;2.67;1.87;;;4.90;99.90;;;;;;7390832;19;20215;-74
2023/12/18 03:42:16;;;;;;;3.20;2.60;;;4.90;99.90;;;;;;7390346;19;20134;-73
2023/12/18 03:44:43;;;;;;;3.43;1.77;;;4.80;99.90;;;;;;7391682;19;20154;-73
2023/12/18 03:47:09;;;;;;;3.10;2.20;;;4.60;99.90;;;;;;7390273;19;20511;-73
2023/12/18 03:49:35;;;;;;;1.77;1.67;;;4.70;99.90;;;;;;7390991;19;20206;-74
2023/12/18 03:52:01;;;;;;;2.27;2.03;;;4.70;99.90;;;;;;7390194;19;20138;-74
2023/12/18 03:54:26;;;;;;;3.30;1.87;;;4.80;99.90;;;;;;7391200;19;20143;-73
2023/12/18 03:56:52;;;;;;;1.90;1.70;;;4.80;99.90;;;;;;7390383;19;20625;-73
2023/12/18 03:59:18;;;;;;;2.53;1.50;;;4.70;99.90;;;;;;7391507;19;20139;-74
2023/12/18 04:01:43;;;;;;;2.00;1.77;;;4.80;99.90;;;;;;7388522;19;20132;-74
2023/12/18 04:04:10;;;;;;;2.57;2.27;;;4.80;99.90;;;;;;7391925;19;20131;-74
2023/12/18 04:06:36;;;;;;;2.30;1.80;;;4.80;99.90;;;;;;7390419;19;20152;-73
2023/12/18 04:09:02;;;;;;;3.10;2.00;;;4.80;99.90;;;;;;7388484;19;20777;-73
2023/12/18 04:11:28;;;;;;;2.13;1.60;;;4.90;99.90;;;;;;7392010;19;20466;-73
2023/12/18 04:13:54;;;;;;;1.43;1.27;;;4.90;99.90;;;;;;7391642;19;20145;-74
2023/12/18 04:16:20;;;;;;;3.03;2.10;;;4.90;99.90;;;;;;7389572;19;20159;-74
2023/12/18 04:18:49;;;;;;;3.40;2.17;;;4.90;99.90;;;;;;7391763;19;20138;-74
2023/12/18 04:21:15;;;;;;;1.73;1.63;;;4.70;99.90;;;;;;7390182;19;20520;-73
2023/12/18 04:23:41;;;;;;;1.73;1.50;;;4.70;99.90;;;;;;7390606;19;20143;-74
2023/12/18 04:26:08;;;;;;;2.40;2.10;;;4.70;99.90;;;;;;7391254;19;20130;-73
2023/12/18 04:28:34;;;;;;;3.50;1.57;;;4.70;99.90;;;;;;7391356;19;20138;-74
2023/12/18 04:31:00;;;;;;;2.67;1.73;;;4.80;99.90;;;;;;7390121;19;20466;-74
2023/12/18 04:33:26;;;;;;;2.00;1.80;;;4.80;99.90;;;;;;7389349;19;20529;-73
2023/12/18 04:35:52;;;;;;;1.80;1.70;;;4.80;99.90;;;;;;7389269;19;20150;-74
2023/12/18 04:38:17;;;;;;;1.30;1.20;;;4.80;99.90;;;;;;7390801;19;20127;-73
2023/12/18 04:40:43;;;;;;;2.80;1.80;;;4.80;99.90;;;;;;7390360;19;20127;-73
2023/12/18 04:43:12;;;;;;;1.73;1.53;;;4.80;99.90;;;;;;7390269;19;20494;-74
2023/12/18 04:45:39;;;;;;;1.83;1.70;;;4.60;99.90;;;;;;7389112;19;20502;-74
2023/12/18 04:48:05;;;;;;;1.63;1.30;;;3.60;99.90;;;;;;7389983;19;20151;-73
2023/12/18 04:50:30;;;;;;;2.50;2.30;;;3.60;99.90;;;;;;7390004;19;20233;-74
2023/12/18 04:52:56;;;;;;;1.60;1.37;;;4.10;99.90;;;;;;7389026;19;20159;-74
2023/12/18 04:55:22;;;;;;;1.70;1.40;;;4.40;99.90;;;;;;7389722;19;20151;-74
2023/12/18 04:57:48;;;;;;;1.97;1.77;;;4.50;99.90;;;;;;7389224;19;20242;-74
2023/12/18 05:00:14;;;;;;;1.70;1.60;;;4.40;99.90;;;;;;7389315;19;20537;-74
2023/12/18 05:02:39;;;;;;;2.67;1.70;;;4.50;99.90;;;;;;7390807;19;20138;-74
2023/12/18 05:05:05;;;;;;;4.37;2.10;;;4.50;99.90;;;;;;7390347;19;21207;-74
2023/12/18 05:07:31;;;;;;;1.67;1.50;;;4.60;99.90;;;;;;7388118;19;20150;-73
2023/12/18 05:09:57;;;;;;;2.83;1.83;;;4.60;99.90;;;;;;7387781;19;20154;-74
2023/12/18 05:12:23;;;;;;;1.90;1.57;;;4.20;99.90;;;;;;7388203;19;20158;-74
2023/12/18 05:14:51;;;;;;;2.30;1.67;;;4.20;99.90;;;;;;7394754;19;20133;-74
2023/12/18 05:17:17;;;;;;;3.47;2.20;;;4.20;99.90;;;;;;7395854;19;20139;-74
2023/12/18 05:19:43;;;;;;;2.07;1.70;;;4.30;99.90;;;;;;7393928;19;20149;-75
2023/12/18 05:22:09;;;;;;;2.10;1.40;;;4.30;99.90;;;;;;7396090;19;20471;-74
2023/12/18 05:24:34;;;;;;;1.57;1.47;;;4.10;99.90;;;;;;7393949;19;20154;-74
2023/12/18 05:27:00;;;;;;;1.90;1.53;;;4.00;99.90;;;;;;7395717;19;20135;-73
2023/12/18 05:29:26;;;;;;;1.63;1.53;;;4.10;99.90;;;;;;7394980;19;20172;-72
2023/12/18 05:31:52;;;;;;;2.60;1.90;;;4.30;99.90;;;;;;7396398;19;20245;-73
2023/12/18 05:34:17;;;;;;;2.77;2.10;;;4.50;99.90;;;;;;7394317;19;20501;-74
2023/12/18 05:36:43;;;;;;;1.67;1.57;;;4.50;99.90;;;;;;7395205;19;20134;-73
2023/12/18 05:39:11;;;;;;;2.27;1.43;;;4.50;99.90;;;;;;7393428;19;20130;-73
2023/12/18 05:41:37;;;;;;;1.33;1.23;;;4.50;99.90;;;;;;7395561;19;20638;-74
2023/12/18 05:44:02;;;;;;;1.70;1.60;;;4.40;99.90;;;;;;7394989;19;20173;-73
2023/12/18 05:46:28;;;;;;;1.90;1.03;;;4.50;99.90;;;;;;7395059;19;20177;-73
2023/12/18 05:48:54;;;;;;;1.67;1.37;;;4.50;99.90;;;;;;7393054;19;20184;-74
2023/12/18 05:51:21;;;;;;;1.47;1.30;;;4.60;99.90;;;;;;7395442;19;20143;-74
2023/12/18 05:53:47;;;;;;;2.63;1.03;;;4.50;99.90;;;;;;7392091;19;20155;-74
2023/12/18 05:56:12;;;;;;;1.20;1.10;;;4.30;99.90;;;;;;7395714;19;20158;-74
2023/12/18 05:58:38;;;;;;;3.37;1.50;;;4.40;99.90;;;;;;7393085;19;20508;-74
2023/12/18 06:01:04;;;;;;;1.90;1.40;;;4.30;99.90;;;;;;7396270;19;20138;-74
2023/12/18 06:03:29;;;;;;;1.47;1.37;;;4.50;99.90;;;;;;7394191;19;20135;-74
2023/12/18 06:05:55;;;;;;;1.43;1.30;;;4.60;99.90;;;;;;7393034;19;20506;-74
2023/12/18 06:08:21;;;;;;;1.77;1.63;;;4.70;99.90;;;;;;7393861;19;20526;-73
2023/12/18 06:10:46;;;;;;;1.10;1.00;;;4.70;99.90;;;;;;7396739;19;20150;-73
2023/12/18 06:13:12;;;;;;;3.07;2.20;;;4.80;99.90;;;;;;7394741;19;20496;-73
2023/12/18 06:15:38;;;;;;;1.77;1.33;;;4.70;99.90;;;;;;7394891;19;20143;-73
2023/12/18 06:18:04;;;;;;;1.27;1.17;;;4.80;99.90;;;;;;7393012;19;20142;-73
2023/12/18 06:20:29;;;;;;;2.90;1.60;;;4.60;99.90;;;;;;7394529;19;20134;-75
2023/12/18 06:22:55;;;;;;;1.40;1.30;;;4.50;99.90;;;;;;7393177;19;20142;-73
2023/12/18 06:25:21;;;;;;;2.10;1.43;;;4.30;99.90;;;;;;7394652;19;20194;-72
2023/12/18 06:27:46;;;;;;;1.30;1.20;;;4.40;99.90;;;;;;7392496;19;20150;-73
2023/12/18 06:30:13;;;;;;;1.87;1.10;;;4.30;99.90;;;;;;7393837;19;20147;-75
2023/12/18 06:32:39;;;;;;;1.33;1.20;;;4.40;99.90;;;;;;7393954;19;20134;-73
2023/12/18 06:35:05;;;;;;;2.87;1.93;;;4.30;99.90;;;;;;7394821;19;20235;-73
2023/12/18 06:37:31;;;;;;;1.93;1.33;;;4.50;99.90;;;;;;7391343;19;20135;-74
2023/12/18 06:39:56;;;;;;;1.30;1.20;;;4.50;99.90;;;;;;7394788;19;20142;-74
2023/12/18 06:42:22;;;;;;;1.30;1.20;;;4.50;99.90;;;;;;7392133;19;20141;-73
2023/12/18 06:44:48;;;;;;;2.73;1.67;;;4.30;99.90;;;;;;7393260;19;20138;-74
2023/12/18 06:47:13;;;;;;;1.03;0.97;;;4.20;99.90;;;;;;7391155;19;20181;-73
2023/12/18 06:49:39;;;;;;;1.73;1.50;;;4.20;99.90;;;;;;7392940;19;20893;-74
2023/12/18 06:52:05;;;;;;;1.97;1.43;;;4.20;99.90;;;;;;7392630;19;20154;-74
2023/12/18 06:54:33;;;;;;;2.43;2.10;;;4.20;99.90;;;;;;7394081;19;20139;-74
2023/12/18 06:56:59;;;;;;;2.97;1.70;;;4.30;99.90;;;;;;7393603;19;20138;-74
2023/12/18 06:59:24;;;;;;;2.63;1.47;;;4.30;99.90;;;;;;7393259;19;20134;-73
2023/12/18 07:01:50;;;;;;;3.03;2.00;;;4.30;99.90;;;;;;7392371;19;20130;-74
2023/12/18 07:04:16;;;;;;;1.40;1.30;;;4.50;99.90;;;;;;7391771;19;20137;-74
2023/12/18 07:06:41;;;;;;;2.20;1.80;;;4.50;99.90;;;;;;7391492;19;20543;-74
2023/12/18 07:09:07;;;;;;;2.40;1.93;;;4.20;99.90;;;;;;7394609;19;20139;-73
2023/12/18 07:11:33;;;;;;;1.20;1.10;;;4.40;99.90;;;;;;7392181;19;20592;-73
2023/12/18 07:13:59;;;;;;;1.70;1.40;;;4.50;99.90;;;;;;7391571;19;20198;-73
2023/12/18 07:16:27;;;;;;;2.73;1.40;;;4.60;99.90;;;;;;7392481;19;20179;-73
2023/12/18 07:18:55;;;;;;;2.23;1.63;;;4.50;99.90;;;;;;7392528;19;20209;-76
2023/12/18 07:21:20;;;;;;;1.67;1.57;;;4.00;99.90;;;;;;7392184;19;20498;-76
2023/12/18 07:23:46;;;;;;;2.67;1.93;;;4.30;99.90;;;;;;7392426;19;20150;-75
2023/12/18 07:26:13;;;;;;;1.53;1.43;;;4.30;99.90;;;;;;7393195;19;20138;-74
2023/12/18 07:28:45;;;;;;;1.83;1.63;;;4.20;99.90;;;;;;7392044;19;20151;-75
2023/12/18 07:31:11;;;;;;;2.37;1.67;;;4.30;99.90;;;;;;7390998;19;20180;-74
2023/12/18 07:33:37;;;;;;;1.57;1.47;;;4.50;99.90;;;;;;7391655;19;20131;-76
2023/12/18 07:36:03;;;;;;;2.20;1.80;;;4.40;99.90;;;;;;7391416;19;20142;-74
2023/12/18 07:38:29;;;;;;;1.97;1.63;;;4.60;99.90;;;;;;7389013;19;20264;-74
2023/12/18 07:40:56;;;;;;;1.93;1.70;;;4.60;99.90;;;;;;7388116;19;20137;-74
2023/12/18 07:43:22;;;;;;;2.43;1.80;;;4.60;99.90;;;;;;7390814;19;20174;-74
2023/12/18 07:45:48;;;;;;;1.93;1.17;;;4.70;99.90;;;;;;7389726;19;20521;-74
2023/12/18 07:48:13;;;;;;;3.10;1.93;;;4.80;99.90;;;;;;7385427;19;20548;-74
2023/12/18 07:50:39;;;;;;;2.03;1.50;;;4.80;99.90;;;;;;7388966;19;20130;-74
2023/12/18 07:53:05;;;;;;;1.90;1.50;;;4.70;99.90;;;;;;7388363;19;20146;-74
2023/12/18 07:55:31;;;;;;;1.87;1.67;;;4.50;99.90;;;;;;7388546;19;20126;-75
2023/12/18 07:57:57;;;;;;;1.80;1.70;;;4.70;99.90;;;;;;7392671;19;20623;-74
2023/12/18 08:00:23;;;;;;;2.20;2.00;;;4.60;99.90;;;;;;7390852;19;20134;-74
2023/12/18 08:02:49;;;;;;;1.97;1.30;;;4.40;99.90;;;;;;7389848;19;20146;-74
2023/12/18 08:05:15;;;;;;;1.87;1.57;;;4.40;99.90;;;;;;7388223;19;20147;-73
2023/12/18 08:07:41;;;;;;;2.03;1.60;;;4.60;99.90;;;;;;7390124;19;20235;-74
2023/12/18 08:10:07;;;;;;;3.07;2.00;;;4.70;99.90;;;;;;7390127;19;20130;-73
2023/12/18 08:12:33;;;;;;;2.00;1.43;;;4.60;99.90;;;;;;7390042;19;20520;-73
2023/12/18 08:14:59;;;;;;;1.77;1.67;;;4.50;99.90;;;;;;7389327;19;20596;-75
2023/12/18 08:17:25;;;;;;;1.67;1.43;;;4.60;99.90;;;;;;7390645;19;20161;-74
2023/12/18 08:19:50;;;;;;;3.43;1.93;;;4.60;99.90;;;;;;7386565;19;20172;-72
2023/12/18 08:22:16;;;;;;;2.70;2.03;;;4.70;99.90;;;;;;7390821;19;20130;-72
2023/12/18 08:24:42;;;;;;;1.83;1.73;;;4.50;99.90;;;;;;7387856;19;20126;-72
2023/12/18 08:27:08;;;;;;;2.77;1.37;;;4.70;99.90;;;;;;7392028;19;20130;-72
2023/12/18 08:29:33;;;;;;;2.00;1.70;;;4.80;99.90;;;;;;7388919;19;20138;-72
2023/12/18 08:31:59;;;;;;;1.80;1.63;;;4.80;99.90;;;;;;7389599;19;20143;-73
2023/12/18 08:34:25;;;;;;;3.77;1.67;;;4.90;99.90;;;;;;7390660;19;20126;-74
2023/12/18 08:36:52;;;;;;;2.23;2.00;;;4.90;99.90;;;;;;7388576;19;20163;-72
2023/12/18 08:39:18;;;;;;;1.70;1.60;;;4.70;99.90;;;;;;7385823;19;20144;-72
2023/12/18 08:41:46;;;;;;;1.70;1.60;;;4.60;99.90;;;;;;7389875;19;20592;-73
2023/12/18 08:44:11;;;;;;;1.57;1.47;;;4.70;99.90;;;;;;7388140;19;20138;-73
2023/12/18 08:46:38;;;;;;;2.60;2.00;;;4.80;99.90;;;;;;7389804;19;20523;-74
2023/12/18 08:49:04;;;;;;;2.63;1.63;;;4.80;99.90;;;;;;7392963;19;20639;-74
2023/12/18 08:51:30;;;;;;;2.43;1.90;;;4.90;99.90;;;;;;7399239;19;20165;-72
2023/12/18 08:53:56;;;;;;;2.07;1.47;;;4.80;99.90;;;;;;7396417;19;20224;-72
2023/12/18 08:56:22;;;;;;;2.40;1.60;;;4.80;99.90;;;;;;7396387;19;20149;-73
2023/12/18 08:58:49;;;;;;;2.67;2.13;;;4.90;99.90;;;;;;7394889;19;20134;-72
2023/12/18 09:01:15;;;;;;;2.70;1.87;;;5.00;99.90;;;;;;7396406;19;20149;-72
2023/12/18 09:03:41;;;;;;;2.13;1.47;;;5.00;99.90;;;;;;7396480;19;20134;-72
2023/12/18 09:06:07;;;;;;;3.43;2.40;;;5.10;99.90;;;;;;7395658;19;20143;-71
2023/12/18 09:08:39;;;;;;;2.37;1.40;;;5.10;99.90;;;;;;7395324;19;20134;-72
2023/12/18 09:11:06;;;;;;;3.30;1.67;;;5.20;99.90;;;;;;7398150;19;20169;-71
2023/12/18 09:13:36;;;;;;;1.83;1.43;;;5.20;99.90;;;;;;7395707;19;20142;-71
2023/12/18 09:16:06;;;;;;;2.70;2.50;;;5.30;99.90;;;;;;7395881;19;20540;-72
2023/12/18 09:18:33;;;;;;;2.60;1.93;;;5.20;99.90;;;;;;7397812;19;20142;-72
2023/12/18 09:20:58;;;;;;;2.30;2.03;;;5.20;99.90;;;;;;7397544;19;20139;-71
2023/12/18 09:23:25;;;;;;;4.43;1.97;;;5.30;99.90;;;;;;7395214;19;20183;-72
2023/12/18 09:25:52;;;;;;;4.13;2.43;;;5.10;99.90;;;;;;7394393;19;20149;-72
2023/12/18 09:28:18;;;;;;;2.17;1.57;;;4.90;99.90;;;;;;7394902;19;20154;-73
2023/12/18 09:30:44;;;;;;;2.10;1.60;;;4.90;99.90;;;;;;7393455;19;20595;-73
2023/12/18 09:33:10;;;;;;;1.50;1.40;;;4.90;99.90;;;;;;7395509;19;20486;-72
2023/12/18 09:35:35;;;;;;;2.17;1.80;;;4.80;99.90;;;;;;7396102;19;20201;-74
2023/12/18 09:38:02;;;;;;;2.10;1.80;;;4.80;99.90;;;;;;7396261;19;20603;-73
2023/12/18 09:40:28;;;;;;;2.27;2.07;;;4.90;99.90;;;;;;7395534;19;20146;-76
2023/12/18 09:42:54;;;;;;;2.73;2.00;;;4.90;99.90;;;;;;7393758;19;20613;-75
2023/12/18 09:45:22;;;;;;;1.50;1.40;;;5.00;99.90;;;;;;7395000;19;20627;-75
2023/12/18 09:47:49;;;;;;;2.10;1.83;;;5.10;99.90;;;;;;7391046;19;20668;-75
2023/12/18 09:50:15;;;;;;;2.93;2.10;;;5.30;99.90;;;;;;7394467;19;20138;-75
2023/12/18 09:52:49;;;;;;;2.47;1.70;;;5.30;99.90;;;;;;7394335;19;20476;-75
2023/12/18 09:55:15;;;;;;;2.13;1.93;;;5.10;99.90;;;;;;7398324;19;20177;-74
2023/12/18 09:57:42;;;;;;;1.70;1.60;;;5.20;99.90;;;;;;7392488;19;20523;-75
2023/12/18 10:00:12;;;;;;;3.63;2.37;;;5.40;99.90;;;;;;7388507;19;20138;-73
2023/12/18 10:02:42;;;;;;;2.17;1.97;;;5.60;99.90;;;;;;7396551;19;20142;-74
2023/12/18 10:05:08;;;;;;;3.20;2.27;;;5.70;99.90;;;;;;7394281;19;20546;-74
2023/12/18 10:07:34;;;;;;;2.13;1.93;;;5.80;99.90;;;;;;7394336;19;20141;-75
2023/12/18 10:10:00;;;;;;;3.77;2.07;;;5.70;99.90;;;;;;7393853;19;20161;-74
2023/12/18 10:12:26;;;;;;;2.37;1.67;;;5.50;99.90;;;;;;7393062;19;20138;-75
2023/12/18 10:14:52;;;;;;;3.80;2.00;;;5.80;99.90;;;;;;7391531;19;20706;-75
2023/12/18 10:17:18;;;;;;;2.43;2.20;;;5.90;99.90;;;;;;7394104;19;20168;-75
2023/12/18 10:19:44;;;;;;;2.27;2.07;;;5.90;99.90;;;;;;7392476;19;20158;-73
2023/12/18 10:22:10;;;;;;;3.27;2.13;;;6.00;99.90;;;;;;7398187;19;20251;-73
2023/12/18 10:24:43;;;;;;;2.53;2.17;;;6.20;99.90;;;;;;7396183;19;20274;-78
2023/12/18 10:27:11;;;;;;;3.17;1.93;;;6.20;99.90;;;;;;7393876;19;20143;-75
2023/12/18 10:29:37;;;;;;;2.07;1.87;;;6.00;99.90;;;;;;7390794;19;20138;-74
2023/12/18 10:32:03;;;;;;;2.20;2.00;;;6.20;99.90;;;;;;7393885;19;20650;-73
2023/12/18 10:34:32;;;;;;;1.97;1.67;;;6.30;99.90;;;;;;7392279;19;20151;-73
2023/12/18 10:36:57;;;;;;;2.27;2.03;;;6.50;99.90;;;;;;7392537;19;20153;-71
2023/12/18 10:39:29;;;;;;;2.73;2.10;;;6.50;99.90;;;;;;7392796;19;20139;-70
2023/12/18 10:41:58;;;;;;;3.23;2.27;;;6.60;99.90;;;;;;7392366;19;20161;-72
2023/12/18 10:44:26;;;;;;;2.97;2.00;;;6.60;99.90;;;;;;7389318;19;20226;-72
2023/12/18 10:46:53;;;;;;;2.47;2.20;;;6.60;99.90;;;;;;7392208;19;20201;-71
2023/12/18 10:49:22;;;;;;;2.37;2.07;;;6.60;99.90;;;;;;7389004;19;20150;-72
2023/12/18 10:51:49;;;;;;;2.73;1.83;;;6.70;99.90;;;;;;7393102;19;20130;-72
2023/12/18 10:54:16;;;;;;;3.10;2.53;;;6.80;99.90;;;;;;7390424;19;20212;-72
2023/12/18 10:56:45;;;;;;;3.27;2.33;;;6.80;99.90;;;;;;7393902;19;20557;-71
2023/12/18 10:59:13;;;;;;;3.73;1.87;;;6.90;99.90;;;;;;7392670;19;20119;-72
2023/12/18 11:01:39;;;;;;;2.33;2.03;;;6.90;99.90;;;;;;7393678;19;20552;-72
2023/12/18 11:04:05;;;;;;;2.33;2.00;;;6.90;99.90;;;;;;7389809;19;20154;-72
2023/12/18 11:06:32;;;;;;;2.50;2.00;;;7.00;99.90;;;;;;7387654;19;20178;-73
2023/12/18 11:08:58;;;;;;;2.83;2.30;;;7.00;99.90;;;;;;7393409;19;20565;-72
2023/12/18 11:11:25;;;;;;;2.13;1.83;;;7.10;99.90;;;;;;7390903;19;20131;-72
2023/12/18 11:14:09;;;;;;;1.97;1.70;;;7.20;99.90;;;;;;7388290;19;20146;-72
2023/12/18 11:17:01;;;;;;;2.43;1.80;;;7.30;99.90;;;;;;7389942;19;20171;-72
2023/12/18 11:19:35;;;;;;;1.47;1.37;;;7.30;99.90;;;;;;7389085;19;20161;-73
2023/12/18 11:22:04;;;;;;;2.73;2.10;;;7.40;99.90;;;;;;7391628;19;20611;-72
2023/12/18 11:24:36;;;;;;;2.47;2.10;;;7.40;99.90;;;;;;7389294;19;20173;-72
2023/12/18 11:27:06;;;;;;;3.27;2.67;;;7.40;99.90;;;;;;7393062;19;20218;-71
2023/12/18 11:29:48;;;;;;;3.63;2.77;;;7.40;99.90;;;;;;7390882;19;20221;-72
2023/12/18 11:32:46;;;;;;;3.53;2.17;;;7.50;99.90;;;;;;7390617;19;20515;-71
2023/12/18 11:35:12;;;;;;;3.53;2.73;;;7.60;99.90;;;;;;7393799;19;20143;-72
2023/12/18 11:38:06;;;;;;;3.17;2.43;;;7.70;99.90;;;;;;7390666;19;20150;-71
2023/12/18 11:40:35;;;;;;;4.93;3.30;;;7.60;99.90;;;;;;7392263;19;20150;-71
2023/12/18 11:43:01;;;;;;;2.43;2.13;;;7.60;99.90;;;;;;7390398;19;20150;-71
2023/12/18 11:45:27;;;;;;;3.53;3.10;;;7.70;99.90;;;;;;7390227;19;20159;-74
2023/12/18 11:47:56;;;;;;;5.20;2.67;;;7.70;99.90;;;;;;7388879;19;20158;-73
2023/12/18 11:50:26;;;;;;;2.57;2.37;;;7.80;99.90;;;;;;7389200;19;20527;-72
2023/12/18 11:52:56;;;;;;;3.13;2.20;;;7.80;99.90;;;;;;7390987;19;20137;-71
2023/12/18 11:55:41;;;;;;;3.07;2.40;;;7.90;99.90;;;;;;7389874;19;20175;-72
2023/12/18 11:58:07;;;;;;;3.87;2.13;;;7.90;99.90;;;;;;7389651;19;20141;-72
2023/12/18 12:00:34;;;;;;;2.63;2.03;;;8.00;99.90;;;;;;7391225;19;20145;-72
2023/12/18 12:03:01;;;;;;;2.90;2.27;;;8.10;99.90;;;;;;7392550;19;20135;-76
2023/12/18 12:05:28;;;;;;;3.37;2.60;;;8.20;99.90;;;;;;7391247;19;20171;-73
2023/12/18 12:07:54;;;;;;;3.17;1.87;;;8.30;99.90;;;;;;7389194;19;20261;-73
2023/12/18 12:10:21;;;;;;;2.27;1.87;;;8.50;99.90;;;;;;7390002;19;20553;-76
2023/12/18 12:12:53;;;;;;;3.40;2.17;;;8.60;99.90;;;;;;7394033;19;20580;-79
2023/12/18 12:15:24;;;;;;;2.90;2.60;;;8.70;99.90;;;;;;7391064;19;20178;-76
2023/12/18 12:18:02;;;;;;;2.57;2.03;;;8.80;99.90;;;;;;7388656;19;20149;-74
2023/12/18 12:20:27;;;;;;;3.90;2.27;;;8.90;99.90;;;;;;7390349;19;20617;-76
2023/12/18 12:22:53;;;;;;;3.23;2.07;;;9.00;99.90;;;;;;7389596;19;20139;-74
2023/12/18 12:25:19;;;;;;;2.63;2.33;;;9.10;99.90;;;;;;7395553;19;20588;-75
2023/12/18 12:27:45;;;;;;;3.53;2.10;;;8.90;99.90;;;;;;7395303;19;20146;-73
2023/12/18 12:30:12;;;;;;;3.00;2.37;;;8.70;99.90;;;;;;7399725;19;20200;-74
2023/12/18 12:32:39;;;;;;;2.27;2.03;;;9.00;99.90;;;;;;7397674;19;20154;-74
2023/12/18 12:35:07;;;;;;;2.23;1.93;;;9.20;99.90;;;;;;7398112;19;20146;-75
2023/12/18 12:37:33;;;;;;;2.97;2.47;;;9.50;99.90;;;;;;7395294;19;20234;-75
2023/12/18 12:40:07;;;;;;;2.37;2.10;;;9.50;99.90;;;;;;7396925;19;20139;-74
2023/12/18 12:42:37;;;;;;;2.83;2.03;;;9.60;99.90;;;;;;7395240;19;20146;-74
2023/12/18 12:45:04;;;;;;;2.67;2.13;;;9.40;99.90;;;;;;7396216;19;20263;-73
2023/12/18 12:47:30;;;;;;;2.20;1.93;;;9.60;99.90;;;;;;7395605;19;20159;-73
2023/12/18 12:50:03;;;;;;;2.03;1.83;;;9.70;99.90;;;;;;7396721;19;20149;-74
2023/12/18 12:52:29;;;;;;;4.00;2.17;;;9.60;99.90;;;;;;7396485;19;20142;-78
2023/12/18 12:54:55;;;;;;;3.87;2.13;;;9.80;99.90;;;;;;7395478;19;20135;-75